Data for 05/11/2018

Time Sea-Level Adjusted Pressure Absolute Pressure Temperature Relative Humidity Dew Point   
(mb) (inHg) (mb) (inHg) (C) (F) (%) (C) (F)
00:05 1014 29.94 843 24.89 6.7 44 88 4.9 40.7
00:10 1014 29.94 843 24.89 6.5 43.8 88 4.7 40.5
00:15 1014 29.94 843 24.89 6.5 43.8 88 4.8 40.6
00:20 1014 29.94 843 24.89 6.6 43.9 88 4.7 40.5
00:25 1014 29.94 843 24.89 6.6 43.9 88 4.8 40.7
00:30 1014 29.94 843 24.89 6.5 43.8 87 4.6 40.3
00:35 1014 29.94 843 24.89 6.4 43.5 88 4.5 40.2
00:40 1014 29.94 843 24.89 6.4 43.6 88 4.5 40.2
00:45 1014 29.94 843 24.89 6.4 43.5 88 4.5 40.1
00:50 1014 29.94 843 24.89 6.5 43.6 87 4.5 40.1
00:55 1014 29.94 843 24.89 6.5 43.7 88 4.6 40.4
01:00 1014 29.94 843 24.89 6.6 43.9 87 4.7 40.5
01:05 1014 29.94 843 24.89 6.6 43.9 88 4.7 40.5
01:10 1014 29.94 843 24.89 6.6 44 88 4.8 40.7
01:15 1014 29.94 843 24.89 6.7 44.1 88 4.9 40.7
01:20 1014 29.94 843 24.89 6.6 43.9 88 4.7 40.4
01:25 1014 29.94 843 24.89 6.6 44 88 4.8 40.6
01:30 1014 29.94 843 24.89 6.6 43.9 88 4.8 40.6
01:35 1014 29.94 843 24.89 6.7 44 88 4.8 40.6
01:40 1014 29.94 843 24.89 6.7 44 88 4.8 40.6
01:45 1014 29.94 843 24.89 6.7 44 88 4.8 40.6
01:50 1014 29.94 843 24.89 6.7 44.1 87 4.8 40.6
01:55 1014 29.94 843 24.89 6.7 44.1 87 4.8 40.6
02:00 1014 29.94 843 24.89 6.6 43.9 84 4 39.3
02:05 1014 29.94 843 24.89 6.4 43.6 84 4 39.2
02:10 1014 29.94 843 24.89 6.4 43.6 84 3.9 39.1
02:15 1014 29.94 843 24.89 6.3 43.4 84 3.9 39
02:20 1014 29.94 843 24.89 6.2 43.2 86 4 39.2
02:25 1014 29.94 843 24.89 6.2 43.2 86 4.1 39.4
02:30 1014 29.94 843 24.89 6.2 43.2 85 3.9 39
02:35 1014 29.94 843 24.89 6.3 43.3 85 3.9 39
02:40 1014 29.94 843 24.89 6.3 43.4 86 4.2 39.6
02:45 1014 29.94 843 24.89 6.3 43.4 87 4.3 39.7
02:50 1014 29.94 843 24.89 6.2 43.2 87 4.2 39.6
02:55 1014 29.94 843 24.89 6.1 43.1 86 3.9 39.1
03:00 1013 29.91 843 24.89 6.1 43 86 3.9 38.9
03:05 1014 29.94 843 24.89 6.1 42.9 86 3.8 38.9
03:10 1014 29.94 843 24.89 6.1 42.9 86 3.9 39.1
03:15 1014 29.94 843 24.89 6.1 43 87 4.1 39.3
03:20 1014 29.94 843 24.89 6.1 43 86 3.9 39.1
03:25 1014 29.94 843 24.89 6.1 43 86 3.9 39
03:30 1013 29.91 843 24.89 6.1 42.9 86 4 39.2
03:35 1013 29.91 843 24.89 6.1 42.9 87 4 39.3
03:40 1013 29.91 843 24.89 6 42.8 87 4 39.1
03:45 1013 29.91 843 24.89 6 42.8 87 4 39.3
03:50 1013 29.91 843 24.89 6 42.7 87 4 39.2
03:55 1013 29.91 843 24.89 6 42.7 87 4 39.2
04:00 1013 29.91 843 24.89 5.9 42.7 88 4.1 39.3
04:05 1013 29.91 843 24.89 5.9 42.6 87 3.9 39.1
04:10 1013 29.91 842 24.86 5.9 42.6 87 3.9 39
04:15 1013 29.91 842 24.86 5.8 42.5 86 3.7 38.6
04:20 1013 29.91 843 24.89 5.9 42.5 86 3.7 38.7
04:25 1013 29.91 843 24.89 5.8 42.5 86 3.7 38.7
04:30 1013 29.91 843 24.89 5.8 42.4 87 3.8 38.8
04:35 1013 29.91 843 24.89 5.8 42.5 87 3.9 39
04:40 1013 29.91 843 24.89 5.7 42.3 87 3.8 38.8
04:45 1013 29.91 843 24.89 5.7 42.2 88 3.7 38.7
04:50 1013 29.91 842 24.86 5.6 42.1 88 3.8 38.9
04:55 1013 29.91 842 24.86 5.7 42.3 88 3.9 39.1
05:00 1013 29.91 843 24.89 5.7 42.3 88 3.9 39
05:05 1013 29.91 843 24.89 5.8 42.4 89 4 39.2
05:10 1013 29.91 842 24.86 5.8 42.4 88 4 39.2
05:15 1013 29.91 842 24.86 5.7 42.3 88 3.9 39
05:20 1013 29.91 842 24.86 5.6 42.1 88 3.8 38.8
05:25 1013 29.91 842 24.86 5.6 42 89 3.8 38.9
05:30 1013 29.91 842 24.86 5.7 42.3 88 3.9 39.1
05:35 1013 29.91 842 24.86 5.8 42.5 88 4.1 39.3
05:40 1013 29.91 842 24.86 5.9 42.6 88 4 39.2
05:45 1013 29.91 842 24.86 5.8 42.5 86 3.7 38.6
05:50 1013 29.91 842 24.86 5.8 42.5 86 3.7 38.7
05:55 1013 29.91 843 24.89 5.9 42.6 86 3.7 38.6
06:00 1013 29.91 843 24.89 5.9 42.6 86 3.7 38.7
06:05 1013 29.91 843 24.89 5.9 42.5 85 3.5 38.3
06:10 1013 29.91 843 24.89 5.9 42.6 84 3.4 38.2
06:15 1014 29.94 843 24.89 5.9 42.6 85 3.5 38.3
06:20 1014 29.94 843 24.89 6 42.7 84 3.4 38.2
06:25 1014 29.94 843 24.89 6 42.7 83 3.4 38.1
06:30 1014 29.94 843 24.89 6 42.8 83 3.4 38.1
06:35 1014 29.94 843 24.89 6 42.9 83 3.4 38.2
06:40 1014 29.94 843 24.89 6.1 43 83 3.4 38.1
06:45 1014 29.94 843 24.89 6 42.8 83 3.3 37.9
06:50 1014 29.94 843 24.89 6.1 42.9 82 3.2 37.8
06:55 1014 29.94 843 24.89 6.1 42.9 83 3.3 38
07:00 1014 29.94 843 24.89 6 42.9 82 3.2 37.8
07:05 1014 29.94 843 24.89 6 42.7 83 3.3 38
07:10 1014 29.94 843 24.89 6 42.7 83 3.3 38
07:15 1014 29.94 843 24.89 5.9 42.6 83 3.3 38
07:20 1014 29.94 843 24.89 5.9 42.5 84 3.3 38
07:25 1014 29.94 843 24.89 5.7 42.3 84 3.2 37.7
07:30 1014 29.94 843 24.89 5.6 42.1 84 3.2 37.7
07:35 1014 29.94 843 24.89 5.6 42.1 84 3.1 37.6
07:40 1014 29.94 843 24.89 5.7 42.2 84 3.2 37.7
07:45 1014 29.94 843 24.89 5.7 42.2 84 3.2 37.8
07:50 1014 29.94 843 24.89 5.6 42.1 86 3.4 38.1
07:55 1014 29.94 843 24.89 5.6 42.1 86 3.4 38.1
08:00 1014 29.94 843 24.89 5.6 42.1 86 3.4 38.1
08:05 1014 29.94 843 24.89 5.6 42 87 3.6 38.4
08:10 1014 29.94 843 24.89 5.6 42.1 88 3.7 38.6
08:15 1014 29.94 843 24.89 5.4 41.8 88 3.7 38.6
08:20 1014 29.94 843 24.89 5.4 41.8 88 3.7 38.6
08:25 1014 29.94 843 24.89 5.4 41.8 89 3.7 38.6
08:30 1014 29.94 844 24.92 5.5 41.8 89 3.8 38.9
08:35 1014 29.94 844 24.92 5.5 41.9 89 3.8 38.8
08:40 1014 29.94 844 24.92 5.4 41.7 89 3.8 38.8
08:45 1014 29.94 844 24.92 5.3 41.6 89 3.6 38.6
08:50 1015 29.97 844 24.92 5.3 41.6 89 3.7 38.6
08:55 1015 29.97 844 24.92 5.5 41.8 89 3.7 38.7
09:00 1015 29.97 844 24.92 5.5 41.9 88 3.7 38.7
09:05 1015 29.97 844 24.92 5.6 42 88 3.8 38.8
09:10 1015 29.97 844 24.92 5.7 42.2 87 3.7 38.6
09:15 1015 29.97 844 24.92 5.6 42.1 88 3.7 38.7
09:20 1015 29.97 844 24.92 5.5 41.8 88 3.6 38.5
09:25 1015 29.97 844 24.92 5.4 41.7 88 3.5 38.3
09:30 1015 29.97 844 24.92 5.5 41.8 88 3.6 38.4
09:35 1015 29.97 844 24.92 5.6 42.1 87 3.6 38.4
09:40 1015 29.97 844 24.92 5.8 42.4 85 3.5 38.3
09:45 1015 29.97 844 24.92 5.8 42.5 85 3.5 38.2
09:50 1015 29.97 844 24.92 5.7 42.2 85 3.4 38.1
09:55 1015 29.97 844 24.92 5.7 42.3 86 3.6 38.6
10:00 1015 29.97 844 24.92 5.9 42.7 85 3.6 38.4
10:05 1015 29.97 844 24.92 5.8 42.4 85 3.6 38.4
10:10 1015 29.97 844 24.92 5.8 42.4 84 3.3 37.9
10:15 1015 29.97 844 24.92 5.7 42.3 84 3.1 37.6
10:20 1015 29.97 844 24.92 5.8 42.5 82 3.1 37.6
10:25 1015 29.97 844 24.92 6 42.9 81 3.1 37.6
10:30 1015 29.97 844 24.92 6.4 43.6 82 3.6 38.4
10:35 1015 29.97 844 24.92 6.9 44.5 77 3.2 37.8
10:40 1015 29.97 844 24.92 6.8 44.3 78 3.3 37.9
10:45 1015 29.97 844 24.92 7 44.6 75 2.8 37.1
10:50 1015 29.97 844 24.92 7.2 45 76 3.2 37.7
10:55 1015 29.97 845 24.95 7 44.6 79 3.6 38.4
11:00 1015 29.97 844 24.92 7 44.6 78 3.4 38.1
11:05 1015 29.97 845 24.95 7.2 45 76 3.4 38
11:10 1015 29.97 845 24.95 7.2 45 77 3.5 38.4
11:15 1015 29.97 845 24.95 7.6 45.7 74 3.3 37.9
11:20 1015 29.97 844 24.92 7.7 45.8 75 3.5 38.3
11:25 1015 29.97 845 24.95 7.4 45.3 77 3.7 38.6
11:30 1015 29.97 845 24.95 7.6 45.7 76 3.7 38.7
11:35 1016 30 845 24.95 7.5 45.5 77 3.8 38.9
11:40 1016 30 845 24.95 7.4 45.3 75 3.3 37.9
11:45 1016 30 845 24.95 7.8 46.1 73 3.4 38.1
11:50 1016 30 845 24.95 7.7 45.9 74 3.4 38.2
11:55 1016 30 845 24.95 7.8 46 70 2.6 36.7
12:00 1016 30 845 24.95 7.5 45.4 71 2.5 36.5
12:05 1016 30 845 24.95 7.6 45.7 71 2.7 36.9
12:10 1016 30 845 24.95 7.9 46.2 71 2.9 37.2
12:15 1016 30 845 24.95 8.3 47 67 2.5 36.5
12:20 1016 30 845 24.95 8.4 47.1 68 2.9 37.1
12:25 1015 29.97 845 24.95 8.5 47.4 65 2.4 36.2
12:30 1016 30 845 24.95 8.2 46.8 66 2.3 36.1
12:35 1016 30 845 24.95 8.4 47 67 2.7 36.8
12:40 1016 30 845 24.95 8.2 46.7 68 2.6 36.7
12:45 1015 29.97 845 24.95 7.9 46.2 67 2.3 36.1
12:50 1015 29.97 845 24.95 8 46.3 68 2.4 36.3
12:55 1016 30 845 24.95 7.6 45.7 69 2.3 36.1
13:00 1015 29.97 845 24.95 8.1 46.6 65 2 35.6
13:05 1016 30 845 24.95 8.5 47.3 64 2.2 35.9
13:10 1016 30 845 24.95 8.5 47.3 65 2.3 36.2
13:15 1016 30 845 24.95 8.7 47.6 63 2.2 35.9
13:20 1016 30 845 24.95 8.7 47.6 66 2.6 36.7
13:25 1016 30 845 24.95 8.5 47.3 66 2.4 36.4
13:30 1016 30 845 24.95 8.4 47 67 2.5 36.6
13:35 1016 30 845 24.95 8.4 47 67 2.7 36.8
13:40 1016 30 845 24.95 8.3 46.9 68 2.7 36.8
13:45 1016 30 845 24.95 8 46.3 67 2.3 36.1
13:50 1016 30 845 24.95 7.8 46.1 68 2.4 36.2
13:55 1016 30 845 24.95 8.1 46.5 67 2.3 36.2
14:00 1016 30 845 24.95 8.4 47.1 63 1.9 35.4
14:05 1016 30 845 24.95 8.7 47.6 64 2.4 36.2
14:10 1016 30 845 24.95 8.4 47 67 2.6 36.6
14:15 1016 30 845 24.95 8 46.4 68 2.4 36.3
14:20 1016 30 845 24.95 7.7 45.8 73 3.2 37.8
14:25 1016 30 845 24.95 8 46.4 71 3.1 37.6
14:30 1016 30 845 24.95 8 46.4 75 3.9 39
14:35 1016 30 845 24.95 8.3 46.9 76 4.4 39.9
14:40 1016 30 845 24.95 8.5 47.2 73 3.9 38.9
14:45 1016 30 845 24.95 8.1 46.6 74 3.8 38.9
14:50 1016 30 845 24.95 7.8 46.1 76 3.9 39
14:55 1016 30 845 24.95 7.8 46 74 3.5 38.2
15:00 1016 30 845 24.95 7.6 45.7 75 3.5 38.4
15:05 1016 30 845 24.95 7.5 45.4 80 4.2 39.6
15:10 1016 30 845 24.95 7.5 45.5 78 3.8 38.9
15:15 1016 30 845 24.95 7.4 45.3 79 4 39.2
15:20 1016 30 845 24.95 7.3 45.2 80 4.2 39.5
15:25 1016 30 845 24.95 7.3 45.2 78 3.8 38.8
15:30 1016 30 845 24.95 7.4 45.2 81 4.3 39.8
15:35 1016 30 845 24.95 7.5 45.5 78 3.9 38.9
15:40 1016 30 845 24.95 7.3 45.1 80 4 39.2
15:45 1016 30 845 24.95 7.3 45.2 78 3.8 38.8
15:50 1016 30 845 24.95 7.4 45.2 79 3.9 39
15:55 1016 30 845 24.95 7.4 45.3 77 3.7 38.7
16:00 1016 30 845 24.95 7.5 45.5 78 3.9 39
16:05 1016 30 845 24.95 7.7 45.8 74 3.3 37.9
16:10 1016 30 845 24.95 7.4 45.2 75 3.2 37.8
16:15 1016 30 845 24.95 7.4 45.4 77 3.7 38.6
16:20 1016 30 845 24.95 7.6 45.6 78 4 39.2
16:25 1016 30 845 24.95 7.6 45.6 75 3.5 38.2
16:30 1016 30 845 24.95 7.6 45.7 79 4.2 39.5
16:35 1016 30 845 24.95 7.7 45.9 78 4.2 39.6
16:40 1016 30 845 24.95 7.5 45.5 79 4.2 39.6
16:45 1016 30 845 24.95 7.7 45.8 77 4 39.1
16:50 1016 30 845 24.95 7.6 45.6 79 4.1 39.4
16:55 1016 30 846 24.98 7.5 45.5 78 3.9 39.1
17:00 1016 30 845 24.95 7.5 45.6 76 3.5 38.3
17:05 1016 30 845 24.95 7.6 45.6 76 3.5 38.3
17:10 1016 30 845 24.95 7.5 45.6 77 3.8 38.8
17:15 1016 30 845 24.95 7.6 45.7 76 3.7 38.6
17:20 1016 30 846 24.98 7.6 45.6 78 4 39.2
17:25 1016 30 846 24.98 7.6 45.7 77 3.9 39
17:30 1016 30 846 24.98 7.6 45.6 78 4 39.2
17:35 1016 30 846 24.98 7.6 45.6 77 3.9 39
17:40 1017 30.03 846 24.98 7.5 45.6 80 4.4 39.8
17:45 1017 30.03 846 24.98 7.6 45.7 79 4.2 39.5
17:50 1017 30.03 846 24.98 7.5 45.5 76 3.6 38.5
17:55 1017 30.03 846 24.98 7.4 45.4 77 3.7 38.6
18:00 1017 30.03 846 24.98 7.4 45.3 79 4 39.2
18:05 1017 30.03 846 24.98 7.2 45 81 4.1 39.4
18:10 1017 30.03 846 24.98 7.1 44.7 80 3.9 38.9
18:15 1017 30.03 846 24.98 6.8 44.3 79 3.4 38.2
18:20 1017 30.03 846 24.98 6.5 43.7 81 3.4 38.2
18:25 1017 30.03 846 24.98 6.4 43.5 79 3.1 37.6
18:30 1017 30.03 846 24.98 6.3 43.4 79 3 37.3
18:35 1017 30.03 846 24.98 6.3 43.4 79 3 37.3
18:40 1017 30.03 846 24.98 6.1 43 82 3.3 38
18:45 1017 30.03 846 24.98 6 42.8 83 3.3 38
18:50 1017 30.03 847 25.01 6 42.7 84 3.4 38.2
18:55 1017 30.03 847 25.01 5.9 42.6 84 3.4 38.1
19:00 1017 30.03 847 25.01 5.9 42.6 84 3.4 38.1
19:05 1018 30.06 847 25.01 5.9 42.7 83 3.2 37.8
19:10 1018 30.06 847 25.01 5.9 42.7 83 3.2 37.8
19:15 1018 30.06 847 25.01 5.9 42.6 83 3.2 37.8
19:20 1018 30.06 847 25.01 5.9 42.7 84 3.4 38
19:25 1018 30.06 847 25.01 5.9 42.7 84 3.5 38.2
19:30 1018 30.06 847 25.01 5.9 42.6 83 3.3 37.9
19:35 1018 30.06 847 25.01 5.9 42.6 84 3.3 38
19:40 1018 30.06 847 25.01 5.9 42.5 82 3.1 37.5
19:45 1018 30.06 847 25.01 5.8 42.5 83 3.1 37.6
19:50 1018 30.06 847 25.01 5.7 42.2 82 2.8 37
19:55 1018 30.06 847 25.01 5.6 42.1 81 2.6 36.7
20:00 1018 30.06 847 25.01 5.6 42 82 2.7 36.9
20:05 1018 30.06 847 25.01 5.5 41.9 82 2.6 36.7
20:10 1018 30.06 847 25.01 5.5 41.8 82 2.6 36.7
20:15 1018 30.06 847 25.01 5.4 41.8 83 2.8 37
20:20 1018 30.06 847 25.01 5.4 41.6 83 2.7 36.9
20:25 1018 30.06 848 25.04 5.2 41.4 83 2.6 36.8
20:30 1019 30.09 848 25.04 5.2 41.4 82 2.3 36.2
20:35 1018 30.06 848 25.04 5.1 41.2 82 2.3 36.1
20:40 1018 30.06 848 25.04 5 41.1 82 2.3 36.1
20:45 1018 30.06 848 25.04 4.9 40.8 82 2.1 35.9
20:50 1018 30.06 847 25.01 4.8 40.6 82 2 35.6
20:55 1018 30.06 847 25.01 4.7 40.5 83 2.1 35.8
21:00 1019 30.09 848 25.04 4.7 40.4 83 2 35.6
21:05 1019 30.09 848 25.04 4.6 40.3 82 1.9 35.4
21:10 1019 30.09 848 25.04 4.6 40.2 82 1.8 35.2
21:15 1019 30.09 848 25.04 4.5 40.1 82 1.8 35.2
21:20 1019 30.09 848 25.04 4.4 40 83 1.7 35.1
21:25 1019 30.09 848 25.04 4.4 39.8 83 1.7 35
21:30 1019 30.09 848 25.04 4.3 39.8 84 1.8 35.3
21:35 1019 30.09 848 25.04 4.3 39.7 84 1.8 35.2
21:40 1019 30.09 848 25.04 4.2 39.6 83 1.5 34.8
21:45 1019 30.09 848 25.04 4.2 39.5 82 1.4 34.5
21:50 1019 30.09 848 25.04 4.1 39.4 82 1.4 34.5
21:55 1019 30.09 848 25.04 4 39.3 82 1.3 34.3
22:00 1019 30.09 848 25.04 4 39.3 82 1.2 34.1
22:05 1019 30.09 848 25.04 4 39.2 82 1.2 34.2
22:10 1019 30.09 848 25.04 3.9 39.1 82 1.2 34.2
22:15 1019 30.09 849 25.07 3.9 39.1 82 1.2 34.1
22:20 1020 30.12 849 25.07 3.9 39.1 83 1.3 34.3
22:25 1020 30.12 849 25.07 3.9 39 83 1.3 34.3
22:30 1020 30.12 849 25.07 3.8 38.9 83 1.3 34.3
22:35 1020 30.12 849 25.07 3.8 38.8 84 1.4 34.6
22:40 1020 30.12 849 25.07 3.8 38.8 84 1.3 34.4
22:45 1020 30.12 849 25.07 3.7 38.7 84 1.3 34.4
22:50 1020 30.12 849 25.07 3.7 38.7 84 1.3 34.4
22:55 1020 30.12 849 25.07 3.7 38.7 83 1.1 34.1
23:00 1020 30.12 849 25.07 3.8 38.9 84 1.3 34.3
23:05 1020 30.12 849 25.07 3.9 39 83 1.3 34.3
23:10 1020 30.12 849 25.07 3.9 39 83 1.2 34.2
23:15 1020 30.12 849 25.07 4 39.1 82 1.2 34.1
23:20 1020 30.12 849 25.07 4 39.2 81 1 33.7
23:25 1020 30.12 849 25.07 4.1 39.3 81 1.1 33.9
23:30 1020 30.12 849 25.07 4 39.2 81 1.1 34
23:35 1020 30.12 849 25.07 4 39.2 81 1 33.7
23:40 1020 30.12 849 25.07 4 39.2 81 1 33.8
23:45 1020 30.12 849 25.07 4 39.2 81 1 33.9
23:50 1020 30.12 849 25.07 4 39.3 80 0.9 33.6
23:55 1020 30.12 849 25.07 4.1 39.4 80 0.9 33.6
24:00 1020 30.12 849 25.07 4.1 39.4 80 1 33.7